sensor_id;sensor_type;location;lat;lon;timestamp;P1;durP1;ratioP1;P2;durP2;ratioP2
67160;SDS011;54088;52.238;21.104;2022-11-15T00:01:52;23.17;;;18.58;;
67160;SDS011;54088;52.238;21.104;2022-11-15T00:04:18;24.17;;;17.85;;
67160;SDS011;54088;52.238;21.104;2022-11-15T00:06:43;25.08;;;17.20;;
67160;SDS011;54088;52.238;21.104;2022-11-15T00:09:09;23.80;;;18.55;;
67160;SDS011;54088;52.238;21.104;2022-11-15T00:11:34;26.50;;;17.27;;
67160;SDS011;54088;52.238;21.104;2022-11-15T00:14:00;25.73;;;18.70;;
67160;SDS011;54088;52.238;21.104;2022-11-15T00:16:27;24.40;;;18.00;;
67160;SDS011;54088;52.238;21.104;2022-11-15T00:18:53;25.13;;;18.20;;
67160;SDS011;54088;52.238;21.104;2022-11-15T00:21:19;27.20;;;19.02;;
67160;SDS011;54088;52.238;21.104;2022-11-15T00:23:44;27.52;;;19.77;;
67160;SDS011;54088;52.238;21.104;2022-11-15T00:26:11;29.25;;;19.10;;
67160;SDS011;54088;52.238;21.104;2022-11-15T00:28:39;29.73;;;19.85;;
67160;SDS011;54088;52.238;21.104;2022-11-15T00:31:06;30.55;;;20.08;;
67160;SDS011;54088;52.238;21.104;2022-11-15T00:33:39;28.77;;;19.92;;
67160;SDS011;54088;52.238;21.104;2022-11-15T00:36:07;31.45;;;20.70;;
67160;SDS011;54088;52.238;21.104;2022-11-15T00:38:36;29.35;;;20.30;;
67160;SDS011;54088;52.238;21.104;2022-11-15T00:41:03;31.20;;;20.75;;
67160;SDS011;54088;52.238;21.104;2022-11-15T00:43:30;31.70;;;19.52;;
67160;SDS011;54088;52.238;21.104;2022-11-15T00:45:56;30.20;;;20.30;;
67160;SDS011;54088;52.238;21.104;2022-11-15T00:48:22;32.83;;;22.30;;
67160;SDS011;54088;52.238;21.104;2022-11-15T00:50:48;35.28;;;22.63;;
67160;SDS011;54088;52.238;21.104;2022-11-15T00:53:14;35.13;;;23.15;;
67160;SDS011;54088;52.238;21.104;2022-11-15T00:55:40;32.60;;;22.70;;
67160;SDS011;54088;52.238;21.104;2022-11-15T00:58:06;34.97;;;21.85;;
67160;SDS011;54088;52.238;21.104;2022-11-15T01:00:31;34.55;;;22.33;;
67160;SDS011;54088;52.238;21.104;2022-11-15T01:02:57;34.15;;;23.65;;
67160;SDS011;54088;52.238;21.104;2022-11-15T01:05:23;35.10;;;23.23;;
67160;SDS011;54088;52.238;21.104;2022-11-15T01:07:52;37.00;;;23.65;;
67160;SDS011;54088;52.238;21.104;2022-11-15T01:10:19;37.25;;;23.33;;
67160;SDS011;54088;52.238;21.104;2022-11-15T01:12:45;39.45;;;25.67;;
67160;SDS011;54088;52.238;21.104;2022-11-15T01:15:11;38.05;;;25.20;;
67160;SDS011;54088;52.238;21.104;2022-11-15T01:17:37;38.88;;;25.75;;
67160;SDS011;54088;52.238;21.104;2022-11-15T01:20:02;39.30;;;26.45;;
67160;SDS011;54088;52.238;21.104;2022-11-15T01:22:28;46.85;;;27.75;;
67160;SDS011;54088;52.238;21.104;2022-11-15T01:24:54;41.10;;;27.17;;
67160;SDS011;54088;52.238;21.104;2022-11-15T01:27:19;46.53;;;28.92;;
67160;SDS011;54088;52.238;21.104;2022-11-15T01:29:45;42.63;;;27.50;;
67160;SDS011;54088;52.238;21.104;2022-11-15T01:32:11;44.70;;;27.85;;
67160;SDS011;54088;52.238;21.104;2022-11-15T01:34:36;41.13;;;28.00;;
67160;SDS011;54088;52.238;21.104;2022-11-15T01:37:02;46.45;;;29.30;;
67160;SDS011;54088;52.238;21.104;2022-11-15T01:39:28;45.10;;;29.90;;
67160;SDS011;54088;52.238;21.104;2022-11-15T01:41:53;43.05;;;30.27;;
67160;SDS011;54088;52.238;21.104;2022-11-15T01:44:31;48.17;;;30.35;;
67160;SDS011;54088;52.238;21.104;2022-11-15T01:47:01;44.22;;;28.80;;
67160;SDS011;54088;52.238;21.104;2022-11-15T01:49:31;45.45;;;28.98;;
67160;SDS011;54088;52.238;21.104;2022-11-15T01:52:00;48.67;;;29.98;;
67160;SDS011;54088;52.238;21.104;2022-11-15T01:54:27;46.17;;;30.17;;
67160;SDS011;54088;52.238;21.104;2022-11-15T01:56:54;45.03;;;29.80;;
67160;SDS011;54088;52.238;21.104;2022-11-15T01:59:24;43.75;;;28.75;;
67160;SDS011;54088;52.238;21.104;2022-11-15T02:01:51;46.72;;;30.45;;
67160;SDS011;54088;52.238;21.104;2022-11-15T02:04:18;46.22;;;29.95;;
67160;SDS011;54088;52.238;21.104;2022-11-15T02:06:52;47.60;;;28.55;;
67160;SDS011;54088;52.238;21.104;2022-11-15T02:09:18;45.58;;;29.75;;
67160;SDS011;54088;52.238;21.104;2022-11-15T02:11:44;44.15;;;28.17;;
67160;SDS011;54088;52.238;21.104;2022-11-15T02:14:12;45.80;;;29.42;;
67160;SDS011;54088;52.238;21.104;2022-11-15T02:24:35;42.20;;;27.67;;
67160;SDS011;54088;52.238;21.104;2022-11-15T02:32:59;48.70;;;29.25;;
67160;SDS011;54088;52.238;21.104;2022-11-15T02:38:08;43.63;;;26.92;;
67160;SDS011;54088;52.238;21.104;2022-11-15T02:40:57;45.42;;;28.55;;
67160;SDS011;54088;52.238;21.104;2022-11-15T02:46:31;42.45;;;26.27;;
67160;SDS011;54088;52.238;21.104;2022-11-15T02:49:20;39.25;;;25.10;;
67160;SDS011;54088;52.238;21.104;2022-11-15T02:51:48;41.88;;;26.10;;
67160;SDS011;54088;52.238;21.104;2022-11-15T02:54:18;45.10;;;26.35;;
67160;SDS011;54088;52.238;21.104;2022-11-15T02:56:50;41.67;;;24.95;;
67160;SDS011;54088;52.238;21.104;2022-11-15T03:07:30;42.70;;;25.55;;
67160;SDS011;54088;52.238;21.104;2022-11-15T03:12:43;44.65;;;26.33;;
67160;SDS011;54088;52.238;21.104;2022-11-15T03:18:02;43.25;;;26.25;;
67160;SDS011;54088;52.238;21.104;2022-11-15T03:20:37;44.83;;;26.67;;
67160;SDS011;54088;52.238;21.104;2022-11-15T03:23:04;47.05;;;27.75;;
67160;SDS011;54088;52.238;21.104;2022-11-15T03:25:33;48.33;;;27.50;;
67160;SDS011;54088;52.238;21.104;2022-11-15T03:28:03;46.47;;;27.13;;
67160;SDS011;54088;52.238;21.104;2022-11-15T03:30:32;47.08;;;27.67;;
67160;SDS011;54088;52.238;21.104;2022-11-15T03:33:01;51.40;;;29.50;;
67160;SDS011;54088;52.238;21.104;2022-11-15T03:35:30;48.00;;;27.83;;
67160;SDS011;54088;52.238;21.104;2022-11-15T03:38:44;47.80;;;26.60;;
67160;SDS011;54088;52.238;21.104;2022-11-15T03:46:00;46.33;;;28.58;;
67160;SDS011;54088;52.238;21.104;2022-11-15T03:48:34;47.70;;;28.65;;
67160;SDS011;54088;52.238;21.104;2022-11-15T03:51:05;48.63;;;29.55;;
67160;SDS011;54088;52.238;21.104;2022-11-15T03:53:31;53.78;;;30.42;;
67160;SDS011;54088;52.238;21.104;2022-11-15T03:55:57;47.38;;;28.80;;
67160;SDS011;54088;52.238;21.104;2022-11-15T03:58:23;49.58;;;30.33;;
67160;SDS011;54088;52.238;21.104;2022-11-15T04:00:49;50.38;;;29.05;;
67160;SDS011;54088;52.238;21.104;2022-11-15T04:03:14;49.25;;;29.35;;
67160;SDS011;54088;52.238;21.104;2022-11-15T04:05:40;50.65;;;30.92;;
67160;SDS011;54088;52.238;21.104;2022-11-15T04:08:05;49.53;;;29.98;;
67160;SDS011;54088;52.238;21.104;2022-11-15T04:10:31;48.63;;;28.85;;
67160;SDS011;54088;52.238;21.104;2022-11-15T04:12:57;50.70;;;30.92;;
67160;SDS011;54088;52.238;21.104;2022-11-15T04:15:23;46.25;;;28.45;;
67160;SDS011;54088;52.238;21.104;2022-11-15T04:17:53;50.03;;;30.50;;
67160;SDS011;54088;52.238;21.104;2022-11-15T04:20:20;52.22;;;31.88;;
67160;SDS011;54088;52.238;21.104;2022-11-15T04:23:14;45.53;;;29.00;;
67160;SDS011;54088;52.238;21.104;2022-11-15T04:26:01;46.03;;;27.17;;
67160;SDS011;54088;52.238;21.104;2022-11-15T04:28:37;48.45;;;28.77;;
67160;SDS011;54088;52.238;21.104;2022-11-15T04:31:23;46.35;;;29.48;;
67160;SDS011;54088;52.238;21.104;2022-11-15T04:33:49;48.38;;;29.17;;
67160;SDS011;54088;52.238;21.104;2022-11-15T04:36:15;49.50;;;29.27;;
67160;SDS011;54088;52.238;21.104;2022-11-15T04:38:59;51.22;;;30.08;;
67160;SDS011;54088;52.238;21.104;2022-11-15T04:41:24;51.20;;;29.38;;
67160;SDS011;54088;52.238;21.104;2022-11-15T04:43:50;50.80;;;29.75;;
67160;SDS011;54088;52.238;21.104;2022-11-15T04:46:16;48.47;;;29.23;;
67160;SDS011;54088;52.238;21.104;2022-11-15T04:48:41;50.00;;;29.08;;
67160;SDS011;54088;52.238;21.104;2022-11-15T04:51:07;51.67;;;29.60;;
67160;SDS011;54088;52.238;21.104;2022-11-15T04:53:33;52.08;;;29.92;;
67160;SDS011;54088;52.238;21.104;2022-11-15T04:55:58;51.20;;;29.05;;
67160;SDS011;54088;52.238;21.104;2022-11-15T04:58:24;56.63;;;30.70;;
67160;SDS011;54088;52.238;21.104;2022-11-15T05:00:50;51.80;;;30.23;;
67160;SDS011;54088;52.238;21.104;2022-11-15T05:03:16;52.65;;;30.08;;
67160;SDS011;54088;52.238;21.104;2022-11-15T05:06:00;48.03;;;28.90;;
67160;SDS011;54088;52.238;21.104;2022-11-15T05:08:25;53.45;;;29.05;;
67160;SDS011;54088;52.238;21.104;2022-11-15T05:10:51;50.53;;;28.60;;
67160;SDS011;54088;52.238;21.104;2022-11-15T05:13:17;51.50;;;29.27;;
67160;SDS011;54088;52.238;21.104;2022-11-15T05:15:43;53.83;;;28.92;;
67160;SDS011;54088;52.238;21.104;2022-11-15T05:18:08;50.80;;;29.45;;
67160;SDS011;54088;52.238;21.104;2022-11-15T05:20:34;51.33;;;30.48;;
67160;SDS011;54088;52.238;21.104;2022-11-15T05:23:00;53.03;;;29.17;;
67160;SDS011;54088;52.238;21.104;2022-11-15T05:25:25;50.38;;;26.25;;
67160;SDS011;54088;52.238;21.104;2022-11-15T05:27:51;48.95;;;26.85;;
67160;SDS011;54088;52.238;21.104;2022-11-15T05:30:17;50.78;;;27.95;;
67160;SDS011;54088;52.238;21.104;2022-11-15T05:32:43;48.00;;;26.42;;
67160;SDS011;54088;52.238;21.104;2022-11-15T05:35:11;50.67;;;28.75;;
67160;SDS011;54088;52.238;21.104;2022-11-15T05:38:01;50.40;;;27.23;;
67160;SDS011;54088;52.238;21.104;2022-11-15T05:40:27;57.65;;;28.92;;
67160;SDS011;54088;52.238;21.104;2022-11-15T05:42:55;52.55;;;28.85;;
67160;SDS011;54088;52.238;21.104;2022-11-15T05:45:21;57.80;;;29.55;;
67160;SDS011;54088;52.238;21.104;2022-11-15T05:47:47;49.85;;;27.65;;
67160;SDS011;54088;52.238;21.104;2022-11-15T05:50:14;54.92;;;28.33;;
67160;SDS011;54088;52.238;21.104;2022-11-15T05:52:43;51.58;;;29.08;;
67160;SDS011;54088;52.238;21.104;2022-11-15T05:55:10;53.40;;;28.33;;
67160;SDS011;54088;52.238;21.104;2022-11-15T05:57:36;56.22;;;27.52;;
67160;SDS011;54088;52.238;21.104;2022-11-15T06:00:02;52.28;;;28.58;;
67160;SDS011;54088;52.238;21.104;2022-11-15T06:02:29;54.40;;;30.23;;
67160;SDS011;54088;52.238;21.104;2022-11-15T06:04:55;58.45;;;30.23;;
67160;SDS011;54088;52.238;21.104;2022-11-15T06:07:20;55.28;;;29.83;;
67160;SDS011;54088;52.238;21.104;2022-11-15T06:09:46;59.70;;;29.52;;
67160;SDS011;54088;52.238;21.104;2022-11-15T06:12:12;54.30;;;29.08;;
67160;SDS011;54088;52.238;21.104;2022-11-15T06:14:38;52.65;;;26.85;;
67160;SDS011;54088;52.238;21.104;2022-11-15T06:17:03;56.97;;;30.65;;
67160;SDS011;54088;52.238;21.104;2022-11-15T06:19:29;56.90;;;28.75;;
67160;SDS011;54088;52.238;21.104;2022-11-15T06:21:58;52.03;;;28.90;;
67160;SDS011;54088;52.238;21.104;2022-11-15T06:24:26;56.95;;;28.85;;
67160;SDS011;54088;52.238;21.104;2022-11-15T06:26:52;53.08;;;28.35;;
67160;SDS011;54088;52.238;21.104;2022-11-15T06:29:18;60.47;;;29.52;;
67160;SDS011;54088;52.238;21.104;2022-11-15T06:31:43;57.78;;;29.92;;
67160;SDS011;54088;52.238;21.104;2022-11-15T06:34:09;55.30;;;28.98;;
67160;SDS011;54088;52.238;21.104;2022-11-15T06:36:35;59.67;;;30.05;;
67160;SDS011;54088;52.238;21.104;2022-11-15T06:39:02;60.00;;;29.27;;
67160;SDS011;54088;52.238;21.104;2022-11-15T06:41:28;58.33;;;30.00;;
67160;SDS011;54088;52.238;21.104;2022-11-15T06:43:54;54.88;;;28.45;;
67160;SDS011;54088;52.238;21.104;2022-11-15T06:46:19;53.35;;;25.35;;
67160;SDS011;54088;52.238;21.104;2022-11-15T06:48:45;48.08;;;24.88;;
67160;SDS011;54088;52.238;21.104;2022-11-15T06:51:11;48.38;;;26.65;;
67160;SDS011;54088;52.238;21.104;2022-11-15T06:53:36;49.80;;;26.25;;
67160;SDS011;54088;52.238;21.104;2022-11-15T06:56:05;46.78;;;25.80;;
67160;SDS011;54088;52.238;21.104;2022-11-15T06:58:32;51.60;;;24.90;;
67160;SDS011;54088;52.238;21.104;2022-11-15T07:01:03;53.50;;;27.13;;
67160;SDS011;54088;52.238;21.104;2022-11-15T07:03:30;49.53;;;27.17;;
67160;SDS011;54088;52.238;21.104;2022-11-15T07:05:57;51.15;;;27.73;;
67160;SDS011;54088;52.238;21.104;2022-11-15T07:08:23;50.72;;;26.55;;
67160;SDS011;54088;52.238;21.104;2022-11-15T07:10:51;47.15;;;25.63;;
67160;SDS011;54088;52.238;21.104;2022-11-15T07:13:17;55.88;;;27.02;;
67160;SDS011;54088;52.238;21.104;2022-11-15T07:15:43;50.83;;;25.27;;
67160;SDS011;54088;52.238;21.104;2022-11-15T07:18:08;46.08;;;24.63;;
67160;SDS011;54088;52.238;21.104;2022-11-15T07:20:34;47.65;;;23.95;;
67160;SDS011;54088;52.238;21.104;2022-11-15T07:23:00;45.97;;;25.40;;
67160;SDS011;54088;52.238;21.104;2022-11-15T07:25:30;45.95;;;23.98;;
67160;SDS011;54088;52.238;21.104;2022-11-15T07:27:56;47.72;;;24.77;;
67160;SDS011;54088;52.238;21.104;2022-11-15T07:30:23;46.97;;;24.67;;
67160;SDS011;54088;52.238;21.104;2022-11-15T07:32:55;47.25;;;22.58;;
67160;SDS011;54088;52.238;21.104;2022-11-15T07:35:23;48.67;;;23.50;;
67160;SDS011;54088;52.238;21.104;2022-11-15T07:37:53;48.25;;;24.48;;
67160;SDS011;54088;52.238;21.104;2022-11-15T07:40:28;47.47;;;26.30;;
67160;SDS011;54088;52.238;21.104;2022-11-15T07:43:00;48.33;;;23.00;;
67160;SDS011;54088;52.238;21.104;2022-11-15T07:45:30;52.25;;;26.38;;
67160;SDS011;54088;52.238;21.104;2022-11-15T07:47:58;51.15;;;24.63;;
67160;SDS011;54088;52.238;21.104;2022-11-15T07:50:24;50.17;;;25.77;;
67160;SDS011;54088;52.238;21.104;2022-11-15T07:52:57;50.78;;;25.65;;
67160;SDS011;54088;52.238;21.104;2022-11-15T07:55:24;56.95;;;27.45;;
67160;SDS011;54088;52.238;21.104;2022-11-15T07:57:52;53.03;;;27.15;;
67160;SDS011;54088;52.238;21.104;2022-11-15T08:00:17;51.70;;;26.70;;
67160;SDS011;54088;52.238;21.104;2022-11-15T08:02:44;46.15;;;25.85;;
67160;SDS011;54088;52.238;21.104;2022-11-15T08:05:10;45.95;;;24.10;;
67160;SDS011;54088;52.238;21.104;2022-11-15T08:07:35;51.92;;;25.00;;
67160;SDS011;54088;52.238;21.104;2022-11-15T08:10:03;43.83;;;22.90;;
67160;SDS011;54088;52.238;21.104;2022-11-15T08:12:30;36.65;;;22.00;;
67160;SDS011;54088;52.238;21.104;2022-11-15T08:14:56;36.10;;;21.45;;
67160;SDS011;54088;52.238;21.104;2022-11-15T08:17:23;41.85;;;23.92;;
67160;SDS011;54088;52.238;21.104;2022-11-15T08:19:49;39.55;;;22.45;;
67160;SDS011;54088;52.238;21.104;2022-11-15T08:22:15;43.63;;;22.95;;
67160;SDS011;54088;52.238;21.104;2022-11-15T08:24:41;42.17;;;23.05;;
67160;SDS011;54088;52.238;21.104;2022-11-15T08:27:06;39.95;;;22.55;;
67160;SDS011;54088;52.238;21.104;2022-11-15T08:29:45;41.13;;;22.67;;
67160;SDS011;54088;52.238;21.104;2022-11-15T08:32:13;38.20;;;21.98;;
67160;SDS011;54088;52.238;21.104;2022-11-15T08:34:39;40.30;;;23.13;;
67160;SDS011;54088;52.238;21.104;2022-11-15T08:37:05;37.30;;;22.48;;
67160;SDS011;54088;52.238;21.104;2022-11-15T08:39:30;36.47;;;22.08;;
67160;SDS011;54088;52.238;21.104;2022-11-15T08:41:56;33.78;;;20.73;;
67160;SDS011;54088;52.238;21.104;2022-11-15T08:44:22;35.67;;;20.75;;
67160;SDS011;54088;52.238;21.104;2022-11-15T08:46:49;36.30;;;22.23;;
67160;SDS011;54088;52.238;21.104;2022-11-15T08:49:14;38.92;;;22.85;;
67160;SDS011;54088;52.238;21.104;2022-11-15T08:51:40;35.75;;;21.65;;
67160;SDS011;54088;52.238;21.104;2022-11-15T08:54:06;39.55;;;23.23;;
67160;SDS011;54088;52.238;21.104;2022-11-15T08:56:32;37.95;;;20.95;;
67160;SDS011;54088;52.238;21.104;2022-11-15T08:58:57;38.33;;;21.67;;
67160;SDS011;54088;52.238;21.104;2022-11-15T09:01:23;36.97;;;22.30;;
67160;SDS011;54088;52.238;21.104;2022-11-15T09:03:48;42.30;;;21.52;;
67160;SDS011;54088;52.238;21.104;2022-11-15T09:06:14;33.80;;;20.05;;
67160;SDS011;54088;52.238;21.104;2022-11-15T09:08:40;35.60;;;21.13;;
67160;SDS011;54088;52.238;21.104;2022-11-15T09:11:07;37.05;;;20.85;;
67160;SDS011;54088;52.238;21.104;2022-11-15T09:13:35;32.00;;;20.33;;
67160;SDS011;54088;52.238;21.104;2022-11-15T09:16:03;35.05;;;20.80;;
67160;SDS011;54088;52.238;21.104;2022-11-15T09:18:29;36.20;;;21.90;;
67160;SDS011;54088;52.238;21.104;2022-11-15T09:20:55;33.53;;;18.70;;
67160;SDS011;54088;52.238;21.104;2022-11-15T09:23:22;31.80;;;19.88;;
67160;SDS011;54088;52.238;21.104;2022-11-15T09:25:48;33.92;;;21.20;;
67160;SDS011;54088;52.238;21.104;2022-11-15T09:28:14;32.38;;;19.52;;
67160;SDS011;54088;52.238;21.104;2022-11-15T09:30:40;34.40;;;19.95;;
67160;SDS011;54088;52.238;21.104;2022-11-15T09:33:14;35.88;;;19.98;;
67160;SDS011;54088;52.238;21.104;2022-11-15T09:35:40;34.70;;;20.98;;
67160;SDS011;54088;52.238;21.104;2022-11-15T09:38:06;39.70;;;22.25;;
67160;SDS011;54088;52.238;21.104;2022-11-15T09:40:32;39.47;;;23.40;;
67160;SDS011;54088;52.238;21.104;2022-11-15T09:43:04;36.17;;;22.15;;
67160;SDS011;54088;52.238;21.104;2022-11-15T09:48:51;37.30;;;22.95;;
67160;SDS011;54088;52.238;21.104;2022-11-15T09:54:04;38.75;;;21.13;;
67160;SDS011;54088;52.238;21.104;2022-11-15T09:56:31;36.97;;;21.77;;
67160;SDS011;54088;52.238;21.104;2022-11-15T10:04:20;36.22;;;20.80;;
67160;SDS011;54088;52.238;21.104;2022-11-15T10:06:52;38.25;;;22.27;;
67160;SDS011;54088;52.238;21.104;2022-11-15T10:09:43;33.00;;;21.17;;
67160;SDS011;54088;52.238;21.104;2022-11-15T10:14:45;37.42;;;22.50;;
67160;SDS011;54088;52.238;21.104;2022-11-15T10:22:28;32.28;;;20.92;;
67160;SDS011;54088;52.238;21.104;2022-11-15T10:27:28;34.00;;;21.30;;
67160;SDS011;54088;52.238;21.104;2022-11-15T10:29:54;34.85;;;22.20;;
67160;SDS011;54088;52.238;21.104;2022-11-15T10:32:20;38.92;;;22.83;;
67160;SDS011;54088;52.238;21.104;2022-11-15T10:34:47;35.58;;;23.23;;
67160;SDS011;54088;52.238;21.104;2022-11-15T10:37:14;40.53;;;23.30;;
67160;SDS011;54088;52.238;21.104;2022-11-15T10:39:40;36.08;;;20.73;;
67160;SDS011;54088;52.238;21.104;2022-11-15T10:42:15;38.75;;;21.83;;
67160;SDS011;54088;52.238;21.104;2022-11-15T10:44:51;37.53;;;23.95;;
67160;SDS011;54088;52.238;21.104;2022-11-15T10:49:57;40.50;;;22.42;;
67160;SDS011;54088;52.238;21.104;2022-11-15T10:52:25;36.13;;;22.50;;
67160;SDS011;54088;52.238;21.104;2022-11-15T10:57:27;34.95;;;21.95;;
67160;SDS011;54088;52.238;21.104;2022-11-15T11:00:38;37.13;;;22.48;;
67160;SDS011;54088;52.238;21.104;2022-11-15T11:02:58;40.45;;;24.10;;
67160;SDS011;54088;52.238;21.104;2022-11-15T11:08:02;40.28;;;23.33;;
67160;SDS011;54088;52.238;21.104;2022-11-15T11:10:30;35.33;;;23.85;;
67160;SDS011;54088;52.238;21.104;2022-11-15T11:15:59;38.90;;;23.92;;
67160;SDS011;54088;52.238;21.104;2022-11-15T11:21:16;35.95;;;22.65;;
67160;SDS011;54088;52.238;21.104;2022-11-15T11:23:54;37.85;;;24.73;;
67160;SDS011;54088;52.238;21.104;2022-11-15T11:26:34;36.83;;;22.90;;
67160;SDS011;54088;52.238;21.104;2022-11-15T11:34:58;39.83;;;26.10;;
67160;SDS011;54088;52.238;21.104;2022-11-15T11:37:29;38.35;;;24.17;;
67160;SDS011;54088;52.238;21.104;2022-11-15T11:40:28;39.65;;;24.63;;
67160;SDS011;54088;52.238;21.104;2022-11-15T11:50:39;41.78;;;25.33;;
67160;SDS011;54088;52.238;21.104;2022-11-15T11:56:02;40.03;;;23.85;;
67160;SDS011;54088;52.238;21.104;2022-11-15T11:58:36;34.67;;;24.50;;
67160;SDS011;54088;52.238;21.104;2022-11-15T12:09:26;41.05;;;25.05;;
67160;SDS011;54088;52.238;21.104;2022-11-15T12:12:06;40.13;;;27.30;;
67160;SDS011;54088;52.238;21.104;2022-11-15T12:14:54;38.35;;;24.92;;
67160;SDS011;54088;52.238;21.104;2022-11-15T12:19:50;38.40;;;26.20;;
67160;SDS011;54088;52.238;21.104;2022-11-15T12:24:45;39.53;;;27.15;;
67160;SDS011;54088;52.238;21.104;2022-11-15T12:27:29;38.90;;;25.30;;
67160;SDS011;54088;52.238;21.104;2022-11-15T12:30:01;41.35;;;26.13;;
67160;SDS011;54088;52.238;21.104;2022-11-15T12:32:39;43.75;;;28.90;;
67160;SDS011;54088;52.238;21.104;2022-11-15T12:35:21;43.80;;;27.15;;
67160;SDS011;54088;52.238;21.104;2022-11-15T12:37:49;39.90;;;26.02;;
67160;SDS011;54088;52.238;21.104;2022-11-15T12:40:30;43.20;;;25.13;;
67160;SDS011;54088;52.238;21.104;2022-11-15T12:45:34;41.42;;;26.90;;
67160;SDS011;54088;52.238;21.104;2022-11-15T12:48:44;44.15;;;29.08;;
67160;SDS011;54088;52.238;21.104;2022-11-15T12:51:00;44.70;;;27.60;;
67160;SDS011;54088;52.238;21.104;2022-11-15T13:06:47;43.20;;;27.05;;
67160;SDS011;54088;52.238;21.104;2022-11-15T13:11:57;43.70;;;27.90;;
67160;SDS011;54088;52.238;21.104;2022-11-15T13:19:47;49.42;;;29.63;;
67160;SDS011;54088;52.238;21.104;2022-11-15T13:22:18;42.90;;;28.60;;
67160;SDS011;54088;52.238;21.104;2022-11-15T13:25:02;43.15;;;28.75;;
67160;SDS011;54088;52.238;21.104;2022-11-15T13:27:28;48.33;;;31.95;;
67160;SDS011;54088;52.238;21.104;2022-11-15T13:29:54;55.15;;;32.40;;
67160;SDS011;54088;52.238;21.104;2022-11-15T13:32:20;52.60;;;30.13;;
67160;SDS011;54088;52.238;21.104;2022-11-15T13:34:47;50.65;;;32.13;;
67160;SDS011;54088;52.238;21.104;2022-11-15T13:39:46;52.15;;;31.95;;
67160;SDS011;54088;52.238;21.104;2022-11-15T13:42:20;52.85;;;32.15;;
67160;SDS011;54088;52.238;21.104;2022-11-15T13:44:56;54.97;;;32.00;;
67160;SDS011;54088;52.238;21.104;2022-11-15T13:47:25;53.63;;;31.52;;
67160;SDS011;54088;52.238;21.104;2022-11-15T13:49:52;52.58;;;33.28;;
67160;SDS011;54088;52.238;21.104;2022-11-15T13:52:18;55.75;;;33.28;;
67160;SDS011;54088;52.238;21.104;2022-11-15T13:57:18;53.80;;;32.25;;
67160;SDS011;54088;52.238;21.104;2022-11-15T13:59:51;52.60;;;33.15;;
67160;SDS011;54088;52.238;21.104;2022-11-15T14:02:27;56.67;;;32.22;;
67160;SDS011;54088;52.238;21.104;2022-11-15T14:04:59;52.22;;;31.80;;
67160;SDS011;54088;52.238;21.104;2022-11-15T14:07:27;55.55;;;34.72;;
67160;SDS011;54088;52.238;21.104;2022-11-15T14:09:53;53.28;;;32.45;;
67160;SDS011;54088;52.238;21.104;2022-11-15T14:12:27;54.83;;;31.23;;
67160;SDS011;54088;52.238;21.104;2022-11-15T14:18:38;56.83;;;33.40;;
67160;SDS011;54088;52.238;21.104;2022-11-15T14:23:34;54.30;;;31.65;;
67160;SDS011;54088;52.238;21.104;2022-11-15T14:25:59;57.10;;;34.92;;
67160;SDS011;54088;52.238;21.104;2022-11-15T14:30:55;58.03;;;34.10;;
67160;SDS011;54088;52.238;21.104;2022-11-15T14:33:32;60.90;;;34.72;;
67160;SDS011;54088;52.238;21.104;2022-11-15T14:36:15;59.38;;;36.45;;
67160;SDS011;54088;52.238;21.104;2022-11-15T14:38:43;57.45;;;33.28;;
67160;SDS011;54088;52.238;21.104;2022-11-15T14:43:45;55.28;;;31.17;;
67160;SDS011;54088;52.238;21.104;2022-11-15T14:46:11;57.00;;;34.17;;
67160;SDS011;54088;52.238;21.104;2022-11-15T14:48:36;55.53;;;31.67;;
67160;SDS011;54088;52.238;21.104;2022-11-15T14:51:02;57.35;;;32.45;;
67160;SDS011;54088;52.238;21.104;2022-11-15T14:53:28;54.10;;;32.38;;
67160;SDS011;54088;52.238;21.104;2022-11-15T14:55:53;54.35;;;32.75;;
67160;SDS011;54088;52.238;21.104;2022-11-15T14:58:19;57.92;;;33.47;;
67160;SDS011;54088;52.238;21.104;2022-11-15T15:00:45;57.70;;;33.63;;
67160;SDS011;54088;52.238;21.104;2022-11-15T15:03:10;55.63;;;32.75;;
67160;SDS011;54088;52.238;21.104;2022-11-15T15:08:03;60.58;;;32.60;;
67160;SDS011;54088;52.238;21.104;2022-11-15T15:10:31;58.63;;;31.83;;
67160;SDS011;54088;52.238;21.104;2022-11-15T15:15:41;62.85;;;32.47;;
67160;SDS011;54088;52.238;21.104;2022-11-15T15:18:07;60.03;;;34.63;;
67160;SDS011;54088;52.238;21.104;2022-11-15T15:20:34;54.85;;;32.90;;
67160;SDS011;54088;52.238;21.104;2022-11-15T15:23:01;62.85;;;32.53;;
67160;SDS011;54088;52.238;21.104;2022-11-15T15:25:28;58.78;;;32.65;;
67160;SDS011;54088;52.238;21.104;2022-11-15T15:27:57;57.35;;;32.50;;
67160;SDS011;54088;52.238;21.104;2022-11-15T15:30:23;56.42;;;31.42;;
67160;SDS011;54088;52.238;21.104;2022-11-15T15:32:49;54.30;;;30.67;;
67160;SDS011;54088;52.238;21.104;2022-11-15T15:35:15;52.88;;;29.85;;
67160;SDS011;54088;52.238;21.104;2022-11-15T15:37:43;56.67;;;30.15;;
67160;SDS011;54088;52.238;21.104;2022-11-15T15:40:16;57.85;;;30.77;;
67160;SDS011;54088;52.238;21.104;2022-11-15T15:42:44;62.08;;;33.45;;
67160;SDS011;54088;52.238;21.104;2022-11-15T15:45:10;56.55;;;31.73;;
67160;SDS011;54088;52.238;21.104;2022-11-15T15:47:37;56.97;;;32.78;;
67160;SDS011;54088;52.238;21.104;2022-11-15T15:50:04;63.97;;;34.47;;
67160;SDS011;54088;52.238;21.104;2022-11-15T15:52:51;58.75;;;33.58;;
67160;SDS011;54088;52.238;21.104;2022-11-15T15:55:18;57.72;;;33.58;;
67160;SDS011;54088;52.238;21.104;2022-11-15T15:57:44;53.80;;;30.95;;
67160;SDS011;54088;52.238;21.104;2022-11-15T16:00:10;50.72;;;28.42;;
67160;SDS011;54088;52.238;21.104;2022-11-15T16:02:36;48.50;;;27.30;;
67160;SDS011;54088;52.238;21.104;2022-11-15T16:05:02;52.58;;;29.27;;
67160;SDS011;54088;52.238;21.104;2022-11-15T16:07:27;54.45;;;30.83;;
67160;SDS011;54088;52.238;21.104;2022-11-15T16:09:54;50.50;;;31.08;;
67160;SDS011;54088;52.238;21.104;2022-11-15T16:12:27;54.97;;;31.02;;
67160;SDS011;54088;52.238;21.104;2022-11-15T16:14:57;53.22;;;30.50;;
67160;SDS011;54088;52.238;21.104;2022-11-15T16:17:25;56.53;;;29.05;;
67160;SDS011;54088;52.238;21.104;2022-11-15T16:19:53;58.55;;;32.28;;
67160;SDS011;54088;52.238;21.104;2022-11-15T16:22:18;64.72;;;34.05;;
67160;SDS011;54088;52.238;21.104;2022-11-15T16:24:44;64.82;;;34.95;;
67160;SDS011;54088;52.238;21.104;2022-11-15T16:27:17;63.40;;;33.70;;
67160;SDS011;54088;52.238;21.104;2022-11-15T16:29:44;68.78;;;35.33;;
67160;SDS011;54088;52.238;21.104;2022-11-15T16:32:10;66.75;;;36.28;;
67160;SDS011;54088;52.238;21.104;2022-11-15T16:34:36;62.97;;;34.58;;
67160;SDS011;54088;52.238;21.104;2022-11-15T16:37:03;69.03;;;39.30;;
67160;SDS011;54088;52.238;21.104;2022-11-15T16:39:29;61.33;;;33.33;;
67160;SDS011;54088;52.238;21.104;2022-11-15T16:41:58;71.32;;;36.20;;
67160;SDS011;54088;52.238;21.104;2022-11-15T16:44:24;65.35;;;35.28;;
67160;SDS011;54088;52.238;21.104;2022-11-15T16:46:50;68.47;;;35.53;;